Time;durP1;ratioP1;P1;durP2;ratioP2;P2;SDS_P1;SDS_P2;PMS_P1;PMS_P2;Temp;Humidity;BMP_temperature;BMP_pressure;BME280_temperature;BME280_humidity;BME280_pressure;Samples;Min_cycle;Max_cycle;Signal;HPM_P1;HPM_P2
2022/07/02 00:01:34;;;;;;;3.28;1.60;;;;;;;23.93;55.61;99665.94;4353684;32;33573;-87
2022/07/02 00:04:05;;;;;;;;;;;;;;;23.87;56.05;99670.81;4347841;32;33999;-88
2022/07/02 00:06:36;;;;;;;3.00;1.50;;;;;;;23.93;56.06;99673.03;4360245;32;33505;-87
2022/07/02 00:09:06;;;;;;;2.62;1.87;;;;;;;23.97;56.19;99672.72;4356093;32;33580;-88
2022/07/02 00:11:35;;;;;;;2.30;1.62;;;;;;;23.80;56.43;99679.19;4355188;32;33084;-87
2022/07/02 00:14:04;;;;;;;3.65;1.90;;;;;;;23.87;56.31;99676.09;4355785;32;34254;-88
2022/07/02 00:16:36;;;;;;;3.15;1.73;;;;;;;23.71;56.85;99674.47;4356158;32;33616;-87
2022/07/02 00:19:07;;;;;;;2.28;1.50;;;;;;;23.72;56.89;99678.81;4361295;32;34218;-88
2022/07/02 00:21:39;;;;;;;3.47;1.65;;;;;;;23.31;58.08;99678.94;4343727;32;33476;-88
2022/07/02 00:24:09;;;;;;;2.17;1.42;;;;;;;23.58;57.31;99655.94;4356691;32;34080;-88
2022/07/02 00:26:40;;;;;;;2.22;1.27;;;;;;;23.83;56.37;99647.19;4348714;32;33695;-87
2022/07/02 00:29:12;;;;;;;3.80;1.67;;;;;;;23.94;55.95;99656.19;4348231;32;34501;-88
2022/07/02 00:31:41;;;;;;;3.92;1.50;;;;;;;23.95;55.84;99652.59;4359427;32;31991;-88
2022/07/02 00:34:12;;;;;;;3.35;1.75;;;;;;;24.13;55.38;99661.06;4359497;32;33582;-88
2022/07/02 00:36:41;;;;;;;3.15;1.65;;;;;;;23.83;56.08;99664.88;4359272;32;33707;-88
2022/07/02 00:39:10;;;;;;;3.33;1.67;;;;;;;23.72;56.31;99684.09;4357670;32;33746;-87
2022/07/02 00:41:39;;;;;;;3.42;1.60;;;;;;;23.71;56.55;99684.22;4355186;32;33404;-87
2022/07/02 00:44:08;;;;;;;4.93;1.95;;;;;;;23.60;56.94;99674.34;4355395;32;33492;-87
2022/07/02 00:46:37;;;;;;;4.28;1.95;;;;;;;23.33;57.52;99672.59;4352899;32;34520;-87
2022/07/02 00:49:06;;;;;;;2.17;1.42;;;;;;;23.05;58.47;99676.22;4355730;32;34440;-88
2022/07/02 00:51:36;;;;;;;2.12;1.30;;;;;;;23.28;57.64;99668.56;4354838;32;34036;-89
2022/07/02 00:54:05;;;;;;;2.78;1.60;;;;;;;23.19;57.46;99675.31;4349791;32;33275;-88
2022/07/02 00:56:34;;;;;;;2.72;1.58;;;;;;;23.03;57.93;99678.12;4355005;32;34552;-88
2022/07/02 00:59:04;;;;;;;3.37;1.92;;;;;;;22.89;58.56;99657.81;4351141;32;33112;-88
2022/07/02 01:01:33;;;;;;;3.50;1.65;;;;;;;22.82;58.67;99642.44;4352430;32;33638;-87
2022/07/02 01:04:04;;;;;;;2.00;1.27;;;;;;;22.97;58.17;99649.38;4355628;32;33829;-88
2022/07/02 01:06:34;;;;;;;2.58;1.58;;;;;;;22.69;58.59;99660.88;4355412;32;33677;-88
2022/07/02 01:11:51;;;;;;;4.87;2.08;;;;;;;22.67;58.97;99687.44;4355289;32;34145;-87
2022/07/02 01:14:22;;;;;;;1.98;1.17;;;;;;;22.72;58.69;99687.97;4360781;32;33878;-88
2022/07/02 01:16:51;;;;;;;4.90;1.70;;;;;;;22.68;58.76;99691.75;4354381;32;33309;-88
2022/07/02 01:19:20;;;;;;;2.92;1.40;;;;;;;22.51;59.23;99682.25;4355271;32;34238;-87
2022/07/02 01:22:15;;;;;;;3.75;1.50;;;;;;;22.54;59.08;99681.19;4354555;32;34005;-89
2022/07/02 01:24:45;;;;;;;2.35;1.08;;;;;;;22.61;58.58;99682.50;4356279;32;33860;-88
2022/07/02 01:27:14;;;;;;;4.37;2.05;;;;;;;22.84;57.88;99689.00;4355121;32;33926;-89
2022/07/02 01:29:43;;;;;;;3.53;1.20;;;;;;;22.72;57.96;99697.72;4360776;32;33771;-88
2022/07/02 01:32:12;;;;;;;2.40;1.20;;;;;;;22.50;58.33;99706.16;4354147;32;33104;-86
2022/07/02 01:34:43;;;;;;;1.90;1.02;;;;;;;22.02;59.45;99716.94;4354648;32;33889;-88
2022/07/02 01:37:15;;;;;;;1.25;1.10;;;;;;;21.72;60.06;99696.72;4355456;32;33813;-89
2022/07/02 01:39:45;;;;;;;1.33;0.70;;;;;;;21.43;60.99;99716.03;4354534;32;33613;-87
2022/07/02 01:42:14;;;;;;;0.93;0.60;;;;;;;21.18;61.25;99711.28;4359095;32;34139;-87
2022/07/02 01:44:45;;;;;;;1.02;0.85;;;;;;;21.02;61.32;99704.25;4360089;32;33519;-87
2022/07/02 01:47:14;;;;;;;1.00;0.85;;;;;;;20.66;62.42;99709.78;4355148;32;33594;-87
2022/07/02 01:49:43;;;;;;;0.70;0.70;;;;;;;20.48;62.75;99714.19;4341024;32;32845;-88
2022/07/02 01:52:14;;;;;;;0.70;0.70;;;;;;;20.37;63.16;99685.81;4354763;32;33517;-87
2022/07/02 01:54:44;;;;;;;1.10;0.70;;;;;;;20.34;63.42;99690.38;4354750;32;34506;-88
2022/07/02 01:57:13;;;;;;;1.05;0.93;;;;;;;20.23;63.37;99690.97;4360197;32;33484;-88
2022/07/02 01:59:42;;;;;;;0.85;0.80;;;;;;;20.06;63.90;99654.12;4348223;32;33924;-88
2022/07/02 02:02:13;;;;;;;1.48;0.80;;;;;;;20.03;63.81;99663.91;4358101;32;33502;-87
2022/07/02 02:04:43;;;;;;;0.60;0.60;;;;;;;20.00;63.75;99653.50;4358343;32;33964;-87
2022/07/02 02:07:14;;;;;;;1.85;1.40;;;;;;;20.21;62.93;99643.63;4350570;32;34797;-88
2022/07/02 02:09:43;;;;;;;0.98;0.90;;;;;;;20.08;63.51;99618.00;4350246;32;33536;-87
2022/07/02 02:12:11;;;;;;;0.70;0.70;;;;;;;20.20;63.12;99593.66;4358865;32;33855;-87
2022/07/02 02:14:40;;;;;;;0.62;0.60;;;;;;;20.16;63.76;99584.22;4359031;32;33932;-87
2022/07/02 02:17:10;;;;;;;2.05;0.93;;;;;;;19.96;64.24;99580.88;4358959;32;33911;-87
2022/07/02 02:19:39;;;;;;;1.75;0.88;;;;;;;19.90;64.87;99575.94;4363998;32;34527;-87
2022/07/02 02:22:08;;;;;;;1.70;1.00;;;;;;;20.12;64.05;99583.53;4362146;32;33135;-87
2022/07/02 02:24:38;;;;;;;1.23;0.73;;;;;;;20.15;64.42;99591.28;4358712;32;34906;-87
2022/07/02 02:27:07;;;;;;;1.33;0.77;;;;;;;20.02;64.97;99600.75;4358916;32;33174;-87
2022/07/02 02:29:37;;;;;;;1.50;0.87;;;;;;;20.28;63.70;99594.09;4360819;32;34090;-88
2022/07/02 02:32:06;;;;;;;1.80;0.70;;;;;;;20.22;63.93;99590.03;4360857;32;33096;-87
2022/07/02 02:34:35;;;;;;;1.12;0.98;;;;;;;20.23;63.81;99591.72;4364051;32;34402;-87
2022/07/02 02:37:05;;;;;;;1.40;0.80;;;;;;;20.29;63.74;99608.09;4347392;32;32339;-88
2022/07/02 02:39:34;;;;;;;3.50;0.80;;;;;;;19.98;64.65;99623.78;4361620;32;34670;-87
2022/07/02 02:42:05;;;;;;;1.37;0.90;;;;;;;20.37;63.21;99625.22;4365150;32;33272;-88
2022/07/02 02:44:33;;;;;;;1.10;1.00;;;;;;;20.54;62.87;99631.31;4361046;32;33915;-87
2022/07/02 02:47:06;;;;;;;1.15;0.80;;;;;;;20.12;63.99;99632.72;4369068;32;34071;-86
2022/07/02 02:49:35;;;;;;;0.85;0.80;;;;;;;20.04;64.29;99633.97;4361792;32;34742;-88
2022/07/02 02:52:04;;;;;;;1.00;0.70;;;;;;;19.85;64.80;99662.22;4360875;32;33407;-88
2022/07/02 02:54:33;;;;;;;1.30;0.80;;;;;;;19.86;64.67;99666.56;4360811;32;34308;-88
2022/07/02 02:57:01;;;;;;;1.37;0.93;;;;;;;19.57;65.82;99655.72;4343861;32;32602;-88
2022/07/02 02:59:32;;;;;;;0.88;0.80;;;;;;;19.47;65.78;99654.44;4356972;32;34536;-89
2022/07/02 03:02:00;;;;;;;1.27;0.93;;;;;;;19.65;65.55;99667.63;4366702;32;35204;-87
2022/07/02 03:04:29;;;;;;;1.10;0.90;;;;;;;19.27;66.74;99673.03;4359113;32;33841;-88
2022/07/02 03:06:58;;;;;;;1.23;0.90;;;;;;;19.10;67.64;99666.81;4358170;32;34676;-87
2022/07/02 03:09:27;;;;;;;1.92;1.00;;;;;;;19.06;67.92;99675.75;4359758;32;33785;-89
2022/07/02 03:11:55;;;;;;;1.23;0.93;;;;;;;19.31;66.98;99688.59;4356932;32;34095;-87
2022/07/02 03:14:24;;;;;;;1.20;0.90;;;;;;;19.42;66.67;99689.81;4365861;32;33779;-87
2022/07/02 03:16:54;;;;;;;1.48;0.98;;;;;;;19.50;66.31;99700.81;4357293;32;33542;-87
2022/07/02 03:19:23;;;;;;;1.85;1.35;;;;;;;19.36;66.86;99686.56;4356824;32;34032;-87
2022/07/02 03:21:52;;;;;;;1.27;1.00;;;;;;;19.38;66.79;99683.88;4356916;32;33494;-88
2022/07/02 03:24:21;;;;;;;1.92;1.00;;;;;;;19.60;66.03;99702.06;4359580;32;34509;-88
2022/07/02 03:26:49;;;;;;;3.92;1.20;;;;;;;19.31;66.99;99693.84;4362723;32;33985;-88
2022/07/02 03:29:25;;;;;;;1.55;1.00;;;;;;;19.53;66.34;99688.37;4357119;32;33912;-88
2022/07/02 03:31:55;;;;;;;1.20;0.90;;;;;;;19.46;66.80;99686.13;4361621;32;33131;-87
2022/07/02 03:34:23;;;;;;;1.42;1.10;;;;;;;19.19;67.80;99713.69;4356816;32;33229;-87
2022/07/02 03:36:52;;;;;;;1.58;1.10;;;;;;;19.31;67.74;99722.78;4357096;32;34740;-87
2022/07/02 03:39:21;;;;;;;1.30;0.90;;;;;;;19.53;66.73;99772.56;4356357;32;34076;-87
2022/07/02 03:41:50;;;;;;;1.20;0.98;;;;;;;19.69;66.42;99745.50;4362544;32;34078;-87
2022/07/02 03:44:19;;;;;;;2.08;1.10;;;;;;;19.71;66.02;99738.41;4357857;32;33529;-88
2022/07/02 03:46:47;;;;;;;1.52;1.02;;;;;;;19.51;66.82;99737.56;4357481;32;33977;-87
2022/07/02 03:49:18;;;;;;;12.13;1.27;;;;;;;19.77;65.92;99743.38;4359248;32;33868;-88
2022/07/02 03:51:46;;;;;;;1.58;1.10;;;;;;;19.91;65.22;99746.16;4357195;32;32372;-87
2022/07/02 03:54:15;;;;;;;2.28;1.20;;;;;;;19.91;65.15;99771.63;4362446;32;33662;-87
2022/07/02 03:56:44;;;;;;;1.05;0.80;;;;;;;19.59;66.20;99760.88;4356163;32;34671;-87
2022/07/02 03:59:13;;;;;;;1.70;1.30;;;;;;;19.46;66.53;99763.25;4354054;32;33591;-88
2022/07/02 04:01:42;;;;;;;0.80;0.80;;;;;;;19.60;66.11;99766.06;4355273;32;33990;-88
2022/07/02 04:04:11;;;;;;;1.45;1.08;;;;;;;19.49;66.37;99763.09;4356580;32;33862;-88
2022/07/02 04:06:41;;;;;;;1.10;1.00;;;;;;;19.26;67.32;99790.53;4354114;32;34833;-87
2022/07/02 04:09:09;;;;;;;0.98;0.90;;;;;;;19.71;66.00;99783.16;4350124;32;36364;-87
2022/07/02 04:11:38;;;;;;;1.55;1.08;;;;;;;19.55;66.27;99780.41;4356541;32;34242;-88
2022/07/02 04:14:07;;;;;;;2.00;1.35;;;;;;;19.57;66.48;99784.66;4356595;32;34211;-87
2022/07/02 04:16:36;;;;;;;1.70;1.00;;;;;;;19.54;66.75;99781.31;4356550;32;34755;-88
2022/07/02 04:19:09;;;;;;;1.50;1.00;;;;;;;19.68;66.15;99794.69;4362025;32;33877;-87
2022/07/02 04:21:44;;;;;;;1.75;1.00;;;;;;;19.73;65.71;99797.94;4362259;32;33974;-87
2022/07/02 04:24:13;;;;;;;1.50;1.40;;;;;;;19.56;66.45;99826.81;4357677;32;33538;-88
2022/07/02 04:26:41;;;;;;;0.95;0.88;;;;;;;19.61;66.13;99804.63;4356444;32;35604;-88
2022/07/02 04:29:10;;;;;;;1.48;1.20;;;;;;;19.62;66.39;99808.13;4356230;32;34145;-87
2022/07/02 04:31:39;;;;;;;1.12;0.90;;;;;;;19.78;65.62;99805.59;4356683;32;33327;-87
2022/07/02 04:34:08;;;;;;;1.85;1.10;;;;;;;20.00;65.09;99800.97;4362025;32;34168;-87
2022/07/02 04:36:39;;;;;;;2.17;1.23;;;;;;;19.84;65.20;99813.22;4370296;32;34780;-88
2022/07/02 04:39:09;;;;;;;1.95;1.30;;;;;;;19.68;65.84;99823.63;4362974;32;33250;-87
2022/07/02 04:41:38;;;;;;;1.98;1.40;;;;;;;20.04;64.68;99831.50;4356599;32;34123;-87
2022/07/02 04:44:06;;;;;;;2.10;1.25;;;;;;;20.37;63.34;99824.56;4343010;32;33168;-87
2022/07/02 04:46:35;;;;;;;2.35;1.50;;;;;;;20.43;63.41;99824.28;4362012;32;34409;-87
2022/07/02 04:49:04;;;;;;;1.48;1.12;;;;;;;20.44;63.13;99850.56;4356423;32;33487;-87
2022/07/02 04:51:33;;;;;;;1.95;1.12;;;;;;;20.58;62.51;99825.28;4356056;32;32925;-87
2022/07/02 04:54:02;;;;;;;2.83;1.48;;;;;;;20.80;61.92;99846.97;4356329;32;33492;-87
2022/07/02 04:56:32;;;;;;;1.73;1.10;;;;;;;21.22;60.48;99848.22;4356393;32;33921;-88
2022/07/02 04:59:01;;;;;;;2.00;1.08;;;;;;;21.42;59.63;99836.59;4360398;32;35290;-87
2022/07/02 05:01:30;;;;;;;1.73;1.20;;;;;;;21.60;59.24;99845.28;4347883;32;31821;-86
2022/07/02 05:03:59;;;;;;;2.50;1.60;;;;;;;22.09;57.47;99841.63;4355900;32;34217;-88
2022/07/02 05:06:28;;;;;;;2.05;1.10;;;;;;;21.92;57.81;99834.66;4349256;32;33470;-88
2022/07/02 05:08:57;;;;;;;1.90;1.12;;;;;;;21.84;58.13;99861.53;4352885;32;33477;-87
2022/07/02 05:11:25;;;;;;;1.40;0.98;;;;;;;21.65;58.89;99858.19;4361313;32;33165;-88
2022/07/02 05:13:55;;;;;;;2.22;1.40;;;;;;;21.87;57.97;99863.13;4361721;32;33862;-88
2022/07/02 05:16:25;;;;;;;1.50;1.27;;;;;;;21.77;58.36;99859.28;4356191;32;34384;-87
2022/07/02 05:18:54;;;;;;;1.37;0.98;;;;;;;22.23;57.18;99875.16;4355637;32;33859;-87
2022/07/02 05:21:22;;;;;;;1.12;1.02;;;;;;;22.30;57.01;99879.16;4356673;32;33419;-88
2022/07/02 05:23:51;;;;;;;4.47;1.33;;;;;;;22.19;57.26;99886.84;4355952;32;33702;-88
2022/07/02 05:26:20;;;;;;;2.60;1.52;;;;;;;22.14;57.39;99887.13;4361607;32;34699;-87
2022/07/02 05:28:49;;;;;;;1.87;0.98;;;;;;;22.36;57.29;99897.31;4355428;32;33460;-87
2022/07/02 05:31:19;;;;;;;5.07;1.10;;;;;;;22.62;56.35;99901.06;4356391;32;33667;-88
2022/07/02 05:33:48;;;;;;;2.08;1.33;;;;;;;22.60;56.09;99900.28;4355954;32;33542;-87
2022/07/02 05:36:17;;;;;;;1.70;1.15;;;;;;;22.23;57.19;99920.09;4356383;32;33410;-88
2022/07/02 05:38:45;;;;;;;2.85;1.60;;;;;;;22.44;56.62;99916.19;4361382;32;33908;-88
2022/07/02 05:41:14;;;;;;;3.28;1.30;;;;;;;22.35;56.75;99937.91;4355888;32;33272;-89
2022/07/02 05:43:43;;;;;;;2.25;1.25;;;;;;;22.45;56.37;99941.72;4355818;32;33460;-87
2022/07/02 05:46:14;;;;;;;1.95;1.25;;;;;;;22.33;56.73;99953.84;4355715;32;33811;-88
2022/07/02 05:48:44;;;;;;;3.50;1.80;;;;;;;22.34;56.91;99957.34;4355551;32;34018;-88
2022/07/02 05:51:13;;;;;;;2.17;1.20;;;;;;;22.36;56.86;99950.19;4357055;32;33755;-87
2022/07/02 05:53:42;;;;;;;1.80;1.33;;;;;;;22.26;57.42;99933.16;4361288;32;33821;-88
2022/07/02 05:56:11;;;;;;;2.83;1.77;;;;;;;22.52;56.68;99924.56;4355347;32;33855;-88
2022/07/02 05:58:40;;;;;;;1.83;1.12;;;;;;;22.70;55.92;99906.72;4355321;32;34571;-88
2022/07/02 06:01:09;;;;;;;1.65;1.05;;;;;;;22.41;56.58;99916.38;4355438;32;33271;-88
2022/07/02 06:03:38;;;;;;;1.75;1.10;;;;;;;22.26;57.55;99938.44;4367094;32;33768;-88
2022/07/02 06:08:54;;;;;;;3.58;1.40;;;;;;;22.36;56.92;99939.59;4357535;32;34199;-88
2022/07/02 06:11:23;;;;;;;5.15;1.67;;;;;;;22.50;56.73;99928.22;4357271;32;33045;-88
2022/07/02 06:13:52;;;;;;;3.10;1.85;;;;;;;22.27;56.79;99934.84;4357974;32;33821;-88
2022/07/02 06:16:21;;;;;;;3.12;1.40;;;;;;;22.03;58.00;99945.00;4357356;32;33950;-87
2022/07/02 06:18:50;;;;;;;2.85;1.40;;;;;;;22.35;57.28;99937.91;4357693;32;34350;-87
2022/07/02 06:21:20;;;;;;;2.00;1.42;;;;;;;22.32;57.15;99936.28;4362838;32;34147;-87
2022/07/02 06:23:49;;;;;;;4.53;1.50;;;;;;;22.55;56.89;99944.66;4357669;32;33373;-87
2022/07/02 06:26:17;;;;;;;3.30;1.70;;;;;;;22.60;56.77;99949.69;4343817;32;33632;-88
2022/07/02 06:28:46;;;;;;;2.55;1.58;;;;;;;22.73;55.91;99951.50;4357153;32;33409;-88
2022/07/02 06:31:15;;;;;;;2.10;1.25;;;;;;;22.28;57.13;99960.34;4357316;32;33370;-88
2022/07/02 06:33:44;;;;;;;3.17;1.48;;;;;;;22.34;57.07;99959.97;4362786;32;34503;-88
2022/07/02 06:36:14;;;;;;;2.47;1.37;;;;;;;22.27;56.91;99961.28;4357081;32;34442;-88
2022/07/02 06:38:46;;;;;;;2.35;1.42;;;;;;;22.31;57.25;99954.87;4357034;32;34574;-88
2022/07/02 06:42:18;;;;;;;2.55;1.48;;;;;;;22.24;57.10;99957.00;4342799;33;32695;-87
2022/07/02 06:44:06;;;;;;;1.70;1.40;;;;;;;22.21;57.07;99956.34;4342102;33;34153;-88
2022/07/02 06:46:35;;;;;;;2.03;1.35;;;;;;;22.26;57.15;99964.88;4342443;33;34628;-89
2022/07/02 06:49:04;;;;;;;1.90;1.10;;;;;;;22.35;56.58;99970.47;4353133;32;33950;-88
2022/07/02 06:51:33;;;;;;;2.25;1.37;;;;;;;22.57;56.46;99978.00;4359962;32;33489;-87
2022/07/02 06:54:03;;;;;;;2.10;1.15;;;;;;;22.71;56.03;99973.69;4357270;32;33480;-87
2022/07/02 06:56:35;;;;;;;2.03;1.48;;;;;;;22.61;55.93;99975.19;4356956;32;36355;-88
2022/07/02 06:59:04;;;;;;;2.87;1.77;;;;;;;22.69;56.04;99976.44;4343182;32;32217;-87
2022/07/02 07:01:33;;;;;;;1.15;0.90;;;;;;;23.04;55.19;99977.97;4362649;32;32979;-88
2022/07/02 07:04:02;;;;;;;2.15;1.27;;;;;;;23.26;53.78;99983.63;4357195;32;34510;-89
2022/07/02 07:06:32;;;;;;;2.80;1.50;;;;;;;23.24;54.40;99977.59;4349708;32;33631;-88
2022/07/02 07:09:02;;;;;;;2.55;1.50;;;;;;;23.26;53.80;99978.34;4348801;32;33752;-87
2022/07/02 07:11:31;;;;;;;2.25;1.25;;;;;;;23.38;53.60;99982.03;4357201;32;32850;-88
2022/07/02 07:14:00;;;;;;;2.53;1.45;;;;;;;23.56;53.47;99988.84;4366530;32;33804;-89
2022/07/02 07:16:29;;;;;;;3.90;1.20;;;;;;;23.56;53.08;99985.34;4377588;32;34674;-88
2022/07/02 07:18:58;;;;;;;2.20;1.02;;;;;;;23.82;52.70;99979.31;4372176;32;34457;-88
2022/07/02 07:21:27;;;;;;;2.12;1.23;;;;;;;23.62;52.65;99992.91;4371071;32;33485;-88
2022/07/02 07:23:55;;;;;;;2.37;1.23;;;;;;;23.50;52.82;99991.03;4357092;32;33807;-87
2022/07/02 07:26:26;;;;;;;1.85;1.27;;;;;;;23.38;53.61;100003.22;4357462;32;33954;-88
2022/07/02 07:28:55;;;;;;;2.57;1.50;;;;;;;23.66;52.93;100007.66;4348675;32;33791;-88
2022/07/02 07:31:26;;;;;;;1.67;1.15;;;;;;;23.53;52.94;100001.41;4356565;32;33514;-87
2022/07/02 07:33:56;;;;;;;2.25;1.37;;;;;;;23.72;52.67;100012.56;4342288;33;33993;-88
2022/07/02 07:36:26;;;;;;;2.17;1.27;;;;;;;23.65;52.78;100019.19;4342145;33;33953;-88
2022/07/02 07:38:55;;;;;;;2.58;1.77;;;;;;;23.71;52.54;100010.03;4342240;33;34105;-88
2022/07/02 07:41:25;;;;;;;2.55;1.42;;;;;;;23.95;51.77;100026.22;4350854;32;32755;-87
2022/07/02 07:43:54;;;;;;;2.10;1.20;;;;;;;24.08;51.59;100028.94;4356870;32;32972;-87
2022/07/02 07:46:23;;;;;;;2.22;1.20;;;;;;;24.04;51.29;100007.06;4356043;32;33766;-88
2022/07/02 07:48:52;;;;;;;2.58;1.40;;;;;;;24.26;50.45;100022.44;4356233;32;34284;-87
2022/07/02 07:51:21;;;;;;;3.28;1.50;;;;;;;24.18;50.63;100025.56;4356201;32;33128;-87
2022/07/02 07:53:50;;;;;;;2.12;1.27;;;;;;;24.36;50.92;100014.75;4361040;32;34588;-87
2022/07/02 07:56:19;;;;;;;1.85;1.30;;;;;;;24.36;50.41;100028.00;4361537;32;34726;-87
2022/07/02 07:58:49;;;;;;;2.87;1.52;;;;;;;24.06;50.88;100021.06;4348158;32;34688;-87
2022/07/02 08:01:18;;;;;;;1.98;1.37;;;;;;;23.76;51.86;100011.47;4342013;33;36071;-87
2022/07/02 08:03:47;;;;;;;2.95;1.50;;;;;;;24.08;51.50;100029.78;4356826;32;33580;-88
2022/07/02 08:06:16;;;;;;;3.42;1.80;;;;;;;24.41;50.80;100020.59;4355798;32;33664;-87
2022/07/02 08:08:45;;;;;;;1.92;1.50;;;;;;;24.67;50.19;100034.84;4362299;32;33631;-87
2022/07/02 08:11:14;;;;;;;3.05;1.50;;;;;;;24.71;50.19;100028.34;4356391;32;34464;-86
2022/07/02 08:13:42;;;;;;;3.25;1.75;;;;;;;24.84;49.80;100026.59;4356231;32;33636;-87
2022/07/02 08:16:15;;;;;;;2.90;1.30;;;;;;;25.05;48.97;100011.00;4357249;32;34757;-88
2022/07/02 08:18:44;;;;;;;2.67;1.80;;;;;;;25.02;48.74;100023.63;4346047;32;33151;-87
2022/07/02 08:21:13;;;;;;;2.05;1.27;;;;;;;25.04;48.64;100017.28;4368447;32;33945;-88
2022/07/02 08:23:42;;;;;;;6.25;1.70;;;;;;;25.16;48.43;100022.72;4356624;32;32610;-87
2022/07/02 08:26:10;;;;;;;1.90;1.20;;;;;;;24.99;48.92;100030.00;4355629;32;35123;-88
2022/07/02 08:28:39;;;;;;;8.35;1.67;;;;;;;25.27;48.14;100015.75;4356857;32;33724;-88
2022/07/02 08:31:08;;;;;;;1.90;1.30;;;;;;;25.47;47.42;100005.53;4356257;32;32908;-88
2022/07/02 08:33:38;;;;;;;1.52;1.02;;;;;;;25.44;47.72;100025.19;4362399;32;33608;-87
2022/07/02 08:36:08;;;;;;;3.42;1.30;;;;;;;25.22;48.20;100017.84;4356460;32;34294;-87
2022/07/02 08:38:36;;;;;;;2.42;1.60;;;;;;;25.50;48.07;100008.81;4356475;32;33562;-87
2022/07/02 08:41:05;;;;;;;2.53;1.40;;;;;;;25.58;47.50;100018.88;4356207;32;33224;-87
2022/07/02 08:43:36;;;;;;;3.22;1.70;;;;;;;25.44;47.25;100017.22;4356421;32;34553;-88
2022/07/02 08:46:05;;;;;;;2.30;1.50;;;;;;;25.29;47.72;100015.62;4356244;32;33306;-88
2022/07/02 08:48:34;;;;;;;6.60;1.60;;;;;;;25.41;47.85;100012.09;4362372;32;34493;-87
2022/07/02 08:51:04;;;;;;;2.35;1.30;;;;;;;25.77;47.97;100010.47;4356322;32;33237;-87
2022/07/02 08:53:33;;;;;;;2.67;1.67;;;;;;;25.78;47.42;100012.16;4356291;32;33383;-87
2022/07/02 08:56:03;;;;;;;2.40;1.37;;;;;;;25.77;47.12;100011.31;4365021;32;33305;-87
2022/07/02 08:58:34;;;;;;;2.87;1.45;;;;;;;25.77;47.00;100018.44;4364220;32;33898;-88
2022/07/02 09:01:05;;;;;;;7.10;2.67;;;;;;;25.81;46.65;100017.28;4348142;32;31808;-88
2022/07/02 09:03:34;;;;;;;3.12;1.20;;;;;;;25.89;46.92;100016.75;4356182;32;32857;-88
2022/07/02 09:06:06;;;;;;;2.80;1.75;;;;;;;25.94;46.39;100015.44;4354165;32;33864;-87
2022/07/02 09:08:36;;;;;;;3.35;1.50;;;;;;;25.98;46.83;100021.41;4356279;32;34080;-87
2022/07/02 09:11:05;;;;;;;3.22;1.77;;;;;;;26.15;46.18;100018.38;4356570;32;33548;-87
2022/07/02 09:13:34;;;;;;;2.15;1.45;;;;;;;26.39;46.22;100007.72;4362084;32;33606;-87
2022/07/02 09:16:03;;;;;;;1.27;1.05;;;;;;;26.32;44.52;100024.28;4346140;32;32820;-87
2022/07/02 09:18:33;;;;;;;3.03;1.23;;;;;;;26.38;45.21;100008.69;4355892;32;33470;-88
2022/07/02 09:21:01;;;;;;;1.85;1.10;;;;;;;26.22;45.49;100008.12;4356117;32;32942;-88
2022/07/02 09:23:31;;;;;;;3.20;1.55;;;;;;;26.21;45.28;100006.41;4356107;32;33607;-87
2022/07/02 09:26:04;;;;;;;2.42;1.40;;;;;;;26.09;45.43;100002.00;4355709;32;34082;-88
2022/07/02 09:28:32;;;;;;;3.50;1.52;;;;;;;26.23;45.43;100003.66;4360947;32;33494;-88
2022/07/02 09:31:03;;;;;;;1.75;1.10;;;;;;;26.47;44.62;99991.19;4355799;32;33292;-88
2022/07/02 09:33:32;;;;;;;3.37;1.50;;;;;;;26.67;45.09;99996.88;4355870;32;33815;-88
2022/07/02 09:36:09;;;;;;;4.25;1.25;;;;;;;26.71;44.96;100001.84;4357248;32;33940;-87
2022/07/02 09:38:42;;;;;;;2.53;1.40;;;;;;;26.87;43.96;99996.22;4363198;32;33754;-87
2022/07/02 09:41:13;;;;;;;3.22;1.62;;;;;;;27.21;43.56;100007.81;4362047;32;33091;-88
2022/07/02 09:43:42;;;;;;;2.73;1.40;;;;;;;27.09;43.99;99991.91;4363246;32;34059;-88
2022/07/02 09:46:15;;;;;;;2.20;1.33;;;;;;;26.92;44.27;100009.19;4357582;32;34707;-88
2022/07/02 09:48:45;;;;;;;1.95;1.12;;;;;;;26.73;44.06;100004.41;4357074;32;34476;-88
2022/07/02 09:51:17;;;;;;;3.92;1.60;;;;;;;26.95;43.31;100016.94;4348073;32;32915;-87
2022/07/02 09:53:54;;;;;;;2.42;1.42;;;;;;;26.80;43.45;100005.63;4343145;33;33967;-88
2022/07/02 09:56:24;;;;;;;3.67;1.58;;;;;;;27.05;42.84;100012.59;4348210;33;33808;-89
2022/07/02 09:58:53;;;;;;;2.62;1.27;;;;;;;26.86;44.41;99999.00;4331478;32;33765;-88
2022/07/02 10:01:23;;;;;;;1.92;1.27;;;;;;;26.83;43.66;100010.72;4355877;32;33172;-87
2022/07/02 10:03:54;;;;;;;1.48;1.10;;;;;;;27.02;43.64;100003.03;4355944;32;33344;-88
2022/07/02 10:06:22;;;;;;;;;;;;;;;27.14;43.16;100014.53;4348762;32;33677;-88
2022/07/02 10:08:57;;;;;;;2.08;1.30;;;;;;;27.39;42.41;100007.34;4358120;32;33008;-88
2022/07/02 10:11:25;;;;;;;2.12;1.52;;;;;;;27.35;42.54;100003.19;4355698;32;33304;-87
2022/07/02 10:13:56;;;;;;;2.78;1.40;;;;;;;27.17;42.58;100011.62;4344739;32;32432;-87
2022/07/02 10:16:25;;;;;;;2.65;1.50;;;;;;;27.16;43.09;100006.41;4354811;32;33964;-87
2022/07/02 10:18:58;;;;;;;2.45;1.27;;;;;;;27.36;42.65;100004.91;4355606;32;33166;-88
2022/07/02 10:21:29;;;;;;;2.97;1.52;;;;;;;27.73;41.98;100007.34;4368740;32;34108;-88
2022/07/02 10:23:59;;;;;;;1.77;1.37;;;;;;;27.73;40.97;100004.66;4370308;32;33962;-87
2022/07/02 10:26:28;;;;;;;1.67;1.02;;;;;;;27.37;41.27;100004.78;4370532;32;33638;-88
2022/07/02 10:28:58;;;;;;;1.85;1.05;;;;;;;27.37;41.83;100002.13;4360792;32;33296;-88
2022/07/02 10:31:27;;;;;;;4.05;1.80;;;;;;;27.46;42.26;99997.91;4358672;32;32589;-89
2022/07/02 10:34:03;;;;;;;1.80;1.00;;;;;;;27.71;41.36;99996.78;4357338;32;34644;-88
2022/07/02 10:36:33;;;;;;;2.87;1.30;;;;;;;28.23;40.69;100005.09;4363156;32;34888;-88
2022/07/02 10:39:03;;;;;;;2.25;1.12;;;;;;;28.24;40.30;100014.78;4356702;32;33404;-88
2022/07/02 10:41:33;;;;;;;2.42;1.27;;;;;;;28.49;38.99;100016.31;4369710;32;33588;-87
2022/07/02 10:44:02;;;;;;;2.00;1.35;;;;;;;28.42;39.46;100004.44;4372142;32;33954;-87
2022/07/02 10:46:39;;;;;;;1.90;1.10;;;;;;;28.56;39.51;100006.84;4363084;32;34014;-88
2022/07/02 10:49:08;;;;;;;2.95;1.30;;;;;;;28.76;39.17;100002.47;4348385;32;32793;-88
2022/07/02 10:51:38;;;;;;;4.07;1.58;;;;;;;28.37;39.02;100004.81;4361962;32;33157;-89
2022/07/02 10:54:08;;;;;;;3.35;1.20;;;;;;;28.52;39.47;99996.53;4343208;32;32353;-89
2022/07/02 10:56:44;;;;;;;;;;;;;;;28.35;39.79;100003.25;4357788;32;34556;-88
2022/07/02 10:59:21;;;;;;;2.00;1.10;;;;;;;28.59;39.28;100000.37;4333675;32;33198;-89
2022/07/02 11:02:00;;;;;;;2.08;1.02;;;;;;;28.67;38.35;100013.94;4356198;32;33344;-89
2022/07/02 11:04:30;;;;;;;1.98;1.23;;;;;;;28.83;38.07;99998.31;4347126;32;33164;-88
2022/07/02 11:07:06;;;;;;;2.28;1.23;;;;;;;28.88;38.01;99993.44;4362099;32;33589;-88
2022/07/02 11:09:47;;;;;;;1.80;1.10;;;;;;;28.83;38.26;99990.31;4357201;32;34432;-89
2022/07/02 11:12:21;;;;;;;4.30;1.30;;;;;;;28.76;37.99;99986.47;4357487;32;33904;-88
2022/07/02 11:14:56;;;;;;;1.02;0.90;;;;;;;28.78;37.63;99989.84;4365753;32;33587;-88
2022/07/02 11:17:49;;;;;;;2.30;1.10;;;;;;;28.86;37.76;99981.19;4372648;32;34724;-87
2022/07/02 11:20:24;;;;;;;3.10;1.10;;;;;;;29.21;37.36;99975.50;4372260;32;33956;-89
2022/07/02 11:22:53;;;;;;;1.70;1.20;;;;;;;28.66;37.81;99974.88;4375993;32;33018;-88
2022/07/02 11:25:23;;;;;;;3.05;1.92;;;;;;;28.93;37.74;99974.34;4361505;32;34571;-88
2022/07/02 11:27:56;;;;;;;;;;;;;;;29.12;36.82;99969.16;4357514;32;34740;-88
2022/07/02 11:30:27;;;;;;;1.60;1.02;;;;;;;29.27;36.77;99972.31;4357172;32;34454;-88
2022/07/02 11:32:56;;;;;;;1.80;0.98;;;;;;;29.49;36.62;99965.94;4356711;32;34096;-88
2022/07/02 11:35:25;;;;;;;1.48;1.10;;;;;;;29.53;35.84;99986.06;4357058;32;33771;-88
2022/07/02 11:37:58;;;;;;;1.62;1.02;;;;;;;29.67;36.21;99966.19;4357426;32;33842;-88
2022/07/02 11:40:28;;;;;;;1.90;0.90;;;;;;;29.87;35.36;99976.91;4350604;32;34421;-87
2022/07/02 11:42:57;;;;;;;3.25;1.42;;;;;;;30.04;35.22;99965.53;4351448;32;33836;-89
2022/07/02 11:45:26;;;;;;;2.92;1.20;;;;;;;30.33;34.58;99962.09;4355362;32;33571;-87
2022/07/02 11:47:54;;;;;;;1.48;1.00;;;;;;;30.58;35.13;99957.97;4356344;32;34765;-89
2022/07/02 11:50:29;;;;;;;3.17;1.37;;;;;;;30.72;35.11;99962.06;4356105;32;33600;-88